createdAt,value
2018-01-21T00:00:36.393Z,5.45
2018-01-21T00:03:06.302Z,5.44
2018-01-21T00:05:36.661Z,5.54
2018-01-21T00:08:06.747Z,5.51
2018-01-21T00:10:37.209Z,5.48
2018-01-21T00:13:06.758Z,5.51
2018-01-21T00:15:36.902Z,5.57
2018-01-21T00:18:06.197Z,5.56
2018-01-21T00:20:35.713Z,5.47
2018-01-21T00:23:05.356Z,5.52
2018-01-21T00:25:34.946Z,5.52
2018-01-21T00:28:05.464Z,5.44
2018-01-21T00:30:35.764Z,5.54
2018-01-21T00:33:04.931Z,5.51
2018-01-21T00:35:35.407Z,5.50
2018-01-21T00:38:05.974Z,5.53
2018-01-21T00:40:35.083Z,5.61
2018-01-21T00:43:04.822Z,5.63
2018-01-21T00:45:33.941Z,5.42
2018-01-21T00:48:03.530Z,5.46
2018-01-21T00:50:33.219Z,5.47
2018-01-21T00:53:02.724Z,5.40
2018-01-21T00:55:31.931Z,5.40
2018-01-21T00:58:03.778Z,5.26
2018-01-21T01:00:32.914Z,5.16
2018-01-21T01:03:02.546Z,5.17
2018-01-21T01:05:31.991Z,5.22
2018-01-21T01:08:01.282Z,5.23
2018-01-21T01:10:30.666Z,5.21
2018-01-21T01:13:00.260Z,5.22
2018-01-21T01:15:29.634Z,5.28
2018-01-21T01:17:59.208Z,5.32
2018-01-21T01:20:28.607Z,5.29
2018-01-21T01:22:57.783Z,5.29
2018-01-21T01:25:26.856Z,5.32
2018-01-21T01:27:56.255Z,5.30
2018-01-21T01:30:25.362Z,5.26
2018-01-21T01:32:54.446Z,5.32
2018-01-21T01:35:24.687Z,5.35
2018-01-21T01:37:53.864Z,5.37
2018-01-21T01:40:22.986Z,5.39
2018-01-21T01:42:52.434Z,5.38
2018-01-21T01:45:21.594Z,5.37
2018-01-21T01:47:50.775Z,5.36
2018-01-21T01:50:20.256Z,5.41
2018-01-21T01:52:49.383Z,5.47
2018-01-21T01:55:18.636Z,5.51
2018-01-21T01:57:47.881Z,5.50
2018-01-21T02:00:17.093Z,5.58
2018-01-21T02:02:46.306Z,5.63
2018-01-21T02:05:15.741Z,5.52
2018-01-21T02:07:44.922Z,5.51
2018-01-21T02:10:14.114Z,5.41
2018-01-21T02:12:43.534Z,5.40
2018-01-21T02:15:12.661Z,5.40
2018-01-21T02:17:41.961Z,5.40
2018-01-21T02:20:11.417Z,5.47
2018-01-21T02:22:40.633Z,5.50
2018-01-21T02:25:09.993Z,5.53
2018-01-21T02:27:39.413Z,5.62
2018-01-21T02:30:08.591Z,5.62
2018-01-21T02:32:37.776Z,5.62
2018-01-21T02:35:07.215Z,5.70
2018-01-21T02:37:36.593Z,5.70
2018-01-21T02:40:06.685Z,5.74
2018-01-21T02:42:37.117Z,5.70
2018-01-21T02:45:06.221Z,5.73
2018-01-21T02:47:35.366Z,5.76
2018-01-21T02:50:05.339Z,5.82
2018-01-21T02:52:34.465Z,5.82
2018-01-21T02:55:03.845Z,5.86
2018-01-21T02:57:33.266Z,5.81
2018-01-21T03:00:03.524Z,5.81
2018-01-21T03:02:33.443Z,5.80
2018-01-21T03:05:03.075Z,5.80
2018-01-21T03:07:32.253Z,5.80
2018-01-21T03:10:01.992Z,5.91
2018-01-21T03:12:31.442Z,5.91
2018-01-21T03:15:00.602Z,5.86
2018-01-21T03:17:30.517Z,5.91
2018-01-21T03:20:00.159Z,5.87
2018-01-21T03:22:29.310Z,5.91
2018-01-21T03:24:58.423Z,5.89
2018-01-21T03:27:27.509Z,5.89
2018-01-21T03:29:56.665Z,5.89
2018-01-21T03:32:26.685Z,5.89
2018-01-21T03:34:55.819Z,5.86
2018-01-21T03:37:24.922Z,5.84
2018-01-21T03:39:54.334Z,5.84
2018-01-21T03:42:23.426Z,5.86
2018-01-21T03:44:52.533Z,5.79
2018-01-21T03:47:21.943Z,5.80
2018-01-21T03:49:51.045Z,5.70
2018-01-21T03:52:20.143Z,5.65
2018-01-21T03:54:49.537Z,5.70
2018-01-21T03:57:18.731Z,5.60
2018-01-21T03:59:47.890Z,5.57
2018-01-21T04:02:17.350Z,5.52
2018-01-21T04:04:46.467Z,5.46
2018-01-21T04:07:15.698Z,5.47
2018-01-21T04:09:45.093Z,5.41
2018-01-21T04:12:14.287Z,5.45
2018-01-21T04:14:43.444Z,5.50
2018-01-21T04:17:12.562Z,5.48
2018-01-21T04:19:41.680Z,5.50
2018-01-21T04:22:11.074Z,5.53
2018-01-21T04:24:40.203Z,5.53
2018-01-21T04:27:09.337Z,5.56
2018-01-21T04:29:38.482Z,5.59
2018-01-21T04:32:07.589Z,5.62
2018-01-21T04:34:37.022Z,5.63
2018-01-21T04:37:06.159Z,5.62
2018-01-21T04:39:35.282Z,5.57
2018-01-21T04:42:05.276Z,5.56
2018-01-21T04:44:34.570Z,5.53
2018-01-21T04:47:03.827Z,5.49
2018-01-21T04:49:33.622Z,5.46
2018-01-21T04:52:03.619Z,5.53
2018-01-21T04:54:32.741Z,5.50
2018-01-21T04:57:02.390Z,5.47
2018-01-21T04:59:31.515Z,5.52
2018-01-21T05:02:00.658Z,5.49
2018-01-21T05:04:30.062Z,5.48
2018-01-21T05:06:59.172Z,5.40
2018-01-21T05:09:28.309Z,5.39
2018-01-21T05:11:57.448Z,5.41
2018-01-21T05:14:26.594Z,5.37
2018-01-21T05:16:55.999Z,5.38
2018-01-21T05:19:25.149Z,5.35
2018-01-21T05:21:54.254Z,5.37
2018-01-21T05:24:23.692Z,5.41
2018-01-21T05:26:52.797Z,5.47
2018-01-21T05:29:22.645Z,5.45
2018-01-21T05:31:52.106Z,5.40
2018-01-21T05:34:21.396Z,5.44
2018-01-21T05:36:50.512Z,5.51
2018-01-21T05:39:19.915Z,5.54
2018-01-21T05:41:49.015Z,5.50
2018-01-21T05:44:18.261Z,5.51
2018-01-21T05:46:47.670Z,5.58
2018-01-21T05:49:16.842Z,5.57
2018-01-21T05:51:46.170Z,5.60
2018-01-21T05:54:15.764Z,5.63
2018-01-21T05:56:44.986Z,5.67
2018-01-21T05:59:14.109Z,5.61
2018-01-21T06:01:43.202Z,5.66
2018-01-21T06:04:12.432Z,5.70
2018-01-21T06:06:42.005Z,5.68
2018-01-21T06:09:11.136Z,5.59
2018-01-21T06:11:40.321Z,5.61
2018-01-21T06:14:09.596Z,5.53
2018-01-21T06:16:38.842Z,5.57
2018-01-21T06:19:08.374Z,5.55
2018-01-21T06:21:37.519Z,5.59
2018-01-21T06:24:06.610Z,5.62
2018-01-21T06:26:36.405Z,5.54
2018-01-21T06:29:05.667Z,5.55
2018-01-21T06:31:35.072Z,5.54
2018-01-21T06:34:05.050Z,5.60
2018-01-21T06:36:34.255Z,5.63
2018-01-21T06:39:03.823Z,5.63
2018-01-21T06:41:33.292Z,5.72
2018-01-21T06:44:03.146Z,5.75
2018-01-21T06:46:32.290Z,5.73
2018-01-21T06:49:01.981Z,5.68
2018-01-21T06:51:31.369Z,5.72
2018-01-21T06:54:00.551Z,5.72
2018-01-21T06:56:30.042Z,5.74
2018-01-21T06:58:59.152Z,5.70
2018-01-21T07:01:28.599Z,5.67
2018-01-21T07:03:58.006Z,5.69
2018-01-21T07:06:27.110Z,5.69
2018-01-21T07:08:56.263Z,5.71
2018-01-21T07:11:26.118Z,5.72
2018-01-21T07:13:55.247Z,5.74
2018-01-21T07:16:24.353Z,5.74
2018-01-21T07:18:53.868Z,5.78
2018-01-21T07:21:23.156Z,5.81
2018-01-21T07:23:52.598Z,5.86
2018-01-21T07:26:22.098Z,5.86
2018-01-21T07:28:51.236Z,5.82
2018-01-21T07:31:20.616Z,5.84
2018-01-21T07:33:50.159Z,5.84
2018-01-21T07:36:20.101Z,5.84
2018-01-21T07:38:49.267Z,5.83
2018-01-21T07:41:19.024Z,5.86
2018-01-21T07:43:48.156Z,5.88
2018-01-21T07:46:18.114Z,5.84
2018-01-21T07:48:47.234Z,5.79
2018-01-21T07:51:16.493Z,5.75
2018-01-21T07:53:45.919Z,5.80
2018-01-21T07:56:15.032Z,5.81
2018-01-21T07:58:44.169Z,6.04
2018-01-21T08:01:13.359Z,6.61
2018-01-21T08:03:42.486Z,7.22
2018-01-21T08:06:11.940Z,7.94
2018-01-21T08:08:41.067Z,8.37
2018-01-21T08:11:10.198Z,8.41
2018-01-21T08:13:40.274Z,7.96
2018-01-21T08:16:09.401Z,7.61
2018-01-21T08:18:38.553Z,7.28
2018-01-21T08:21:07.998Z,6.99
2018-01-21T08:23:37.201Z,6.84
2018-01-21T08:26:06.378Z,6.69
2018-01-21T08:28:35.774Z,6.64
2018-01-21T08:31:05.195Z,6.46
2018-01-21T08:33:36.831Z,6.44
2018-01-21T08:38:14.431Z,6.56
2018-01-21T08:41:45.912Z,6.52
2018-01-21T08:44:15.463Z,6.50
2018-01-21T08:46:44.766Z,6.50
2018-01-21T08:49:13.942Z,6.57
2018-01-21T08:51:43.211Z,6.57
2018-01-21T08:54:12.537Z,6.44
2018-01-21T08:56:42.058Z,6.42
2018-01-21T08:59:12.289Z,6.42
2018-01-21T09:01:41.425Z,6.40
2018-01-21T09:04:23.940Z,6.38
2018-01-21T09:06:53.145Z,6.34
2018-01-21T09:09:23.307Z,6.30
2018-01-21T09:11:52.441Z,6.17
2018-01-21T09:14:23.178Z,6.24
2018-01-21T09:16:53.172Z,6.29
2018-01-21T09:19:22.330Z,6.42
2018-01-21T09:21:51.453Z,6.51
2018-01-21T09:24:22.937Z,6.63
2018-01-21T09:26:52.117Z,6.66
2018-01-21T09:29:21.295Z,6.73
2018-01-21T09:31:50.818Z,6.61
2018-01-21T09:34:20.863Z,6.55
2018-01-21T09:36:50.060Z,6.63
2018-01-21T09:39:19.754Z,6.67
2018-01-21T09:41:48.888Z,6.54
2018-01-21T09:44:18.519Z,6.67
2018-01-21T09:46:47.941Z,6.66
2018-01-21T09:49:17.406Z,6.98
2018-01-21T09:51:46.633Z,7.23
2018-01-21T09:54:16.071Z,7.48
2018-01-21T09:56:45.183Z,7.74
2018-01-21T09:59:14.379Z,7.78
2018-01-21T10:01:43.825Z,7.93
2018-01-21T10:04:12.947Z,7.83
2018-01-21T10:06:42.094Z,8.06
2018-01-21T10:09:11.239Z,8.14
2018-01-21T10:11:40.409Z,7.93
2018-01-21T10:14:09.520Z,8.22
2018-01-21T10:16:40.276Z,8.12
2018-01-21T10:19:09.408Z,7.99
2018-01-21T10:21:38.554Z,8.50
2018-01-21T10:24:08.066Z,9.02
2018-01-21T10:26:40.011Z,9.18
2018-01-21T10:29:09.494Z,9.00
2018-01-21T10:31:38.980Z,8.63
2018-01-21T10:34:08.133Z,8.71
2018-01-21T10:36:37.274Z,8.84
2018-01-21T10:39:06.844Z,8.85
2018-01-21T10:41:35.976Z,8.76
2018-01-21T10:44:05.601Z,9.09
2018-01-21T10:46:35.363Z,8.81
2018-01-21T10:49:04.712Z,8.99
2018-01-21T10:51:34.011Z,9.06
2018-01-21T10:54:05.296Z,8.93
2018-01-21T10:56:34.555Z,8.92
2018-01-21T10:59:04.131Z,9.04
2018-01-21T11:01:33.462Z,9.42
2018-01-21T11:04:03.282Z,9.98
2018-01-21T11:06:32.813Z,10.08
2018-01-21T11:09:02.990Z,9.73
2018-01-21T11:11:32.220Z,9.46
2018-01-21T11:14:02.455Z,9.59
2018-01-21T11:16:31.772Z,9.80
2018-01-21T11:19:01.119Z,10.10
2018-01-21T11:21:30.247Z,9.90
2018-01-21T11:23:59.385Z,9.28
2018-01-21T11:26:28.708Z,9.13
2018-01-21T11:28:57.848Z,8.99
2018-01-21T11:31:27.019Z,8.77
2018-01-21T11:33:56.443Z,9.03
2018-01-21T11:36:25.660Z,8.94
2018-01-21T11:38:54.826Z,8.39
2018-01-21T11:41:24.084Z,8.37
2018-01-21T11:43:53.307Z,8.30
2018-01-21T11:46:22.768Z,8.14
2018-01-21T11:48:51.967Z,8.36
2018-01-21T11:51:21.083Z,8.39
2018-01-21T11:53:50.239Z,8.35
2018-01-21T11:56:19.762Z,8.30
2018-01-21T11:58:49.329Z,8.27
2018-01-21T12:01:18.599Z,8.18
2018-01-21T12:03:47.720Z,8.17
2018-01-21T12:06:18.211Z,8.26
2018-01-21T12:08:47.405Z,8.03
2018-01-21T12:11:16.699Z,8.11
2018-01-21T12:13:46.102Z,8.16
2018-01-21T12:16:15.257Z,7.92
2018-01-21T12:18:44.463Z,7.81
2018-01-21T12:21:13.945Z,7.81
2018-01-21T12:23:44.154Z,7.79
2018-01-21T12:26:13.326Z,7.77
2018-01-21T12:28:42.517Z,7.85
2018-01-21T12:31:11.650Z,7.82
2018-01-21T12:33:40.802Z,7.92
2018-01-21T12:36:10.256Z,7.84
2018-01-21T12:38:39.394Z,7.93
2018-01-21T12:41:08.600Z,7.99
2018-01-21T12:43:39.218Z,7.92
2018-01-21T12:46:08.441Z,7.96
2018-01-21T12:48:37.584Z,7.62
2018-01-21T12:51:08.244Z,7.56
2018-01-21T12:53:37.551Z,7.50
2018-01-21T12:56:06.699Z,7.51
2018-01-21T12:58:36.195Z,7.53
2018-01-21T13:01:05.362Z,7.60
2018-01-21T13:03:34.532Z,7.49
2018-01-21T13:06:04.981Z,7.36
2018-01-21T13:08:34.208Z,7.43
2018-01-21T13:11:03.978Z,7.31
2018-01-21T13:13:33.460Z,7.39
2018-01-21T13:16:04.860Z,7.40
2018-01-21T13:18:34.100Z,7.50
2018-01-21T13:21:04.796Z,7.68
2018-01-21T13:23:33.940Z,7.85
2018-01-21T13:26:04.515Z,7.98
2018-01-21T13:28:35.299Z,7.85
2018-01-21T13:31:04.710Z,7.87
2018-01-21T13:33:33.843Z,7.74
2018-01-21T13:36:04.200Z,7.51
2018-01-21T13:38:33.368Z,7.53
2018-01-21T13:41:02.814Z,7.58
2018-01-21T13:43:32.252Z,7.55
2018-01-21T13:46:02.476Z,7.63
2018-01-21T13:48:31.708Z,7.72
2018-01-21T13:51:01.498Z,7.57
2018-01-21T13:53:30.615Z,7.61
2018-01-21T13:55:59.927Z,7.51
2018-01-21T13:58:29.678Z,7.47
2018-01-21T14:00:59.266Z,7.43
2018-01-21T14:03:28.615Z,7.45
2018-01-21T14:05:58.099Z,7.59
2018-01-21T14:08:27.379Z,7.66
2018-01-21T14:10:56.525Z,7.62
2018-01-21T14:13:26.788Z,7.52
2018-01-21T14:15:55.965Z,7.37
2018-01-21T14:18:25.107Z,7.38
2018-01-21T14:20:54.591Z,7.46
2018-01-21T14:23:23.844Z,7.41
2018-01-21T14:25:53.166Z,7.53
2018-01-21T14:28:25.499Z,7.60
2018-01-21T14:30:54.833Z,7.46
2018-01-21T14:33:24.207Z,7.45
2018-01-21T14:35:53.351Z,7.53
2018-01-21T14:38:23.128Z,7.56
2018-01-21T14:40:52.623Z,7.54
2018-01-21T14:43:23.477Z,7.50
2018-01-21T14:45:52.707Z,7.44
2018-01-21T14:48:22.324Z,7.42
2018-01-21T14:50:52.132Z,7.32
2018-01-21T14:53:21.909Z,7.38
2018-01-21T14:55:51.434Z,7.32
2018-01-21T14:58:20.784Z,7.30
2018-01-21T15:00:49.982Z,7.17
2018-01-21T15:03:20.649Z,7.11
2018-01-21T15:05:49.856Z,7.26
2018-01-21T15:08:19.144Z,7.23
2018-01-21T15:10:48.860Z,7.27
2018-01-21T15:13:20.092Z,7.33
2018-01-21T15:15:51.420Z,7.32
2018-01-21T15:18:24.024Z,7.37
2018-01-21T15:20:53.638Z,7.38
2018-01-21T15:23:23.110Z,7.27
2018-01-21T15:25:52.387Z,7.28
2018-01-21T15:28:22.181Z,7.19
2018-01-21T15:30:51.531Z,7.17
2018-01-21T15:33:24.600Z,7.17
2018-01-21T15:35:54.123Z,7.03
2018-01-21T15:38:23.526Z,7.03
2018-01-21T15:40:52.908Z,7.03
2018-01-21T15:43:22.577Z,6.96
2018-01-21T15:45:51.782Z,7.02
2018-01-21T15:48:22.169Z,7.02
2018-01-21T15:50:51.803Z,7.08
2018-01-21T15:53:21.085Z,7.10
2018-01-21T15:55:50.299Z,7.14
2018-01-21T15:58:20.146Z,7.07
2018-01-21T16:00:49.418Z,6.85
2018-01-21T16:03:18.876Z,6.78
2018-01-21T16:05:48.458Z,6.75
2018-01-21T16:08:18.098Z,6.88
2018-01-21T16:10:47.986Z,6.93
2018-01-21T16:13:17.907Z,6.86
2018-01-21T16:15:47.823Z,6.86
2018-01-21T16:18:17.128Z,6.80
2018-01-21T16:20:47.391Z,6.80
2018-01-21T16:23:16.655Z,6.84
2018-01-21T16:25:46.013Z,6.85
2018-01-21T16:28:15.237Z,6.82
2018-01-21T16:30:44.434Z,6.65
2018-01-21T16:33:13.635Z,6.72
2018-01-21T16:35:42.800Z,6.69
2018-01-21T16:39:20.987Z,6.67
2018-01-21T16:41:50.667Z,6.66
2018-01-21T16:44:20.779Z,6.70
2018-01-21T16:46:50.312Z,6.62
2018-01-21T16:49:19.742Z,6.57
2018-01-21T16:51:48.898Z,6.48
2018-01-21T16:54:18.396Z,6.57
2018-01-21T16:56:47.562Z,6.59
2018-01-21T16:59:16.767Z,6.54
2018-01-21T17:01:46.278Z,6.55
2018-01-21T17:04:15.734Z,6.62
2018-01-21T17:06:46.567Z,6.68
2018-01-21T17:09:16.272Z,6.58
2018-01-21T17:11:45.425Z,6.49
2018-01-21T17:14:14.569Z,6.52
2018-01-21T17:16:44.088Z,6.52
2018-01-21T17:19:13.284Z,6.53
2018-01-21T17:21:42.930Z,6.65
2018-01-21T17:24:13.316Z,6.60
2018-01-21T17:26:42.705Z,6.64
2018-01-21T17:29:12.058Z,6.72
2018-01-21T17:31:42.793Z,6.78
2018-01-21T17:34:12.106Z,6.77
2018-01-21T17:36:42.465Z,6.79
2018-01-21T17:39:13.104Z,6.80
2018-01-21T17:41:42.404Z,6.73
2018-01-21T17:44:11.776Z,6.71
2018-01-21T17:46:40.914Z,6.64
2018-01-21T17:49:10.126Z,6.49
2018-01-21T17:51:39.857Z,6.51
2018-01-21T17:54:09.387Z,6.50
2018-01-21T17:56:38.592Z,6.36
2018-01-21T17:59:07.799Z,6.43
2018-01-21T18:01:37.088Z,6.40
2018-01-21T18:04:06.279Z,6.41
2018-01-21T18:06:35.775Z,6.49
2018-01-21T18:09:05.532Z,6.42
2018-01-21T18:11:35.908Z,6.37
2018-01-21T18:14:06.235Z,6.39
2018-01-21T18:16:36.564Z,6.31
2018-01-21T18:19:06.933Z,6.22
2018-01-21T18:21:36.414Z,6.04
2018-01-21T18:24:06.675Z,6.14
2018-01-21T18:26:36.597Z,6.11
2018-01-21T18:29:06.107Z,6.24
2018-01-21T18:31:36.483Z,6.23
2018-01-21T18:34:06.660Z,6.32
2018-01-21T18:36:36.265Z,6.19
2018-01-21T18:39:05.582Z,6.08
2018-01-21T18:41:34.827Z,6.18
2018-01-21T18:44:05.908Z,6.11
2018-01-21T18:46:36.150Z,6.04
2018-01-21T18:49:05.364Z,6.18
2018-01-21T18:51:34.860Z,6.23
2018-01-21T18:54:04.807Z,6.28
2018-01-21T18:56:35.720Z,6.34
2018-01-21T18:59:05.523Z,6.31
2018-01-21T19:01:35.710Z,6.34
2018-01-21T19:04:06.626Z,6.35
2018-01-21T19:06:36.056Z,6.38
2018-01-21T19:09:06.046Z,6.35
2018-01-21T19:11:35.517Z,6.38
2018-01-21T19:14:06.037Z,6.37
2018-01-21T19:16:35.434Z,6.36
2018-01-21T19:19:04.961Z,6.36
2018-01-21T19:21:34.634Z,6.40
2018-01-21T19:24:04.986Z,6.38
2018-01-21T19:26:34.710Z,6.37
2018-01-21T19:29:04.735Z,6.30
2018-01-21T19:31:34.135Z,6.33
2018-01-21T19:34:04.787Z,6.21
2018-01-21T19:36:34.510Z,6.25
2018-01-21T19:39:04.448Z,6.27
2018-01-21T19:41:34.227Z,6.27
2018-01-21T19:44:04.635Z,6.17
2018-01-21T19:46:34.119Z,6.12
2018-01-21T19:49:03.599Z,6.18
2018-01-21T19:51:33.592Z,6.20
2018-01-21T19:54:04.064Z,6.11
2018-01-21T19:56:33.580Z,6.05
2018-01-21T19:59:04.021Z,6.15
2018-01-21T20:01:33.248Z,6.18
2018-01-21T20:04:03.750Z,6.20
2018-01-21T20:06:35.124Z,6.23
2018-01-21T20:09:05.570Z,6.06
2018-01-21T20:11:34.952Z,6.04
2018-01-21T20:14:06.243Z,6.08
2018-01-21T20:16:35.740Z,6.09
2018-01-21T20:19:05.230Z,6.09
2018-01-21T20:21:36.086Z,6.13
2018-01-21T20:24:05.887Z,6.07
2018-01-21T20:26:35.116Z,6.09
2018-01-21T20:29:04.863Z,6.10
2018-01-21T20:31:34.193Z,6.14
2018-01-21T20:34:04.418Z,6.06
2018-01-21T20:36:33.660Z,6.05
2018-01-21T20:39:03.099Z,6.09
2018-01-21T20:41:34.300Z,6.06
2018-01-21T20:44:05.558Z,6.02
2018-01-21T20:46:34.904Z,6.04
2018-01-21T20:49:04.830Z,6.09
2018-01-21T20:51:38.216Z,6.09
2018-01-21T20:54:11.724Z,6.15
2018-01-21T20:56:41.465Z,6.09
2018-01-21T20:59:10.629Z,6.03
2018-01-21T21:01:39.863Z,6.03
2018-01-21T21:04:09.513Z,5.94
2018-01-21T21:06:38.672Z,6.00
2018-01-21T21:09:07.905Z,6.02
2018-01-21T21:11:37.543Z,6.04
2018-01-21T21:14:06.900Z,6.02
2018-01-21T21:16:36.007Z,5.97
2018-01-21T21:19:05.425Z,6.01
2018-01-21T21:21:34.881Z,5.96
2018-01-21T21:24:05.660Z,5.96
2018-01-21T21:26:35.051Z,5.93
2018-01-21T21:29:04.657Z,5.91
2018-01-21T21:31:34.143Z,5.86
2018-01-21T21:34:04.041Z,5.91
2018-01-21T21:36:33.586Z,5.98
2018-01-21T21:39:03.081Z,6.01
2018-01-21T21:41:32.497Z,5.99
2018-01-21T21:44:03.197Z,5.89
2018-01-21T21:46:33.384Z,5.90
2018-01-21T21:49:02.903Z,5.99
2018-01-21T21:51:32.504Z,5.93
2018-01-21T21:54:03.623Z,5.94
2018-01-21T21:56:33.030Z,5.82
2018-01-21T21:59:02.975Z,5.83
2018-01-21T22:01:32.249Z,5.90
2018-01-21T22:04:03.015Z,5.95
2018-01-21T22:06:33.166Z,5.88
2018-01-21T22:09:02.619Z,5.77
2018-01-21T22:11:31.953Z,5.83
2018-01-21T22:14:01.850Z,5.88
2018-01-21T22:16:31.211Z,5.90
2018-01-21T22:19:00.382Z,5.79
2018-01-21T22:21:29.519Z,5.87
2018-01-21T22:23:58.683Z,5.87
2018-01-21T22:26:29.758Z,5.86
2018-01-21T22:28:58.904Z,5.80
2018-01-21T22:31:28.461Z,5.75
2018-01-21T22:33:58.065Z,5.78
2018-01-21T22:36:27.367Z,5.79
2018-01-21T22:38:56.758Z,5.85
2018-01-21T22:41:26.397Z,5.91
2018-01-21T22:43:55.679Z,5.98
2018-01-21T22:46:24.971Z,6.00
2018-01-21T22:48:55.056Z,5.97
2018-01-21T22:51:24.935Z,6.03
2018-01-21T22:53:54.242Z,5.97
2018-01-21T22:56:23.864Z,5.95
2018-01-21T22:58:53.042Z,5.82
2018-01-21T23:01:22.263Z,5.81
2018-01-21T23:03:52.832Z,5.89
2018-01-21T23:06:22.064Z,5.88
2018-01-21T23:08:51.331Z,5.95
2018-01-21T23:11:21.761Z,6.01
2018-01-21T23:13:51.161Z,6.00
2018-01-21T23:16:21.703Z,5.94
2018-01-21T23:18:52.466Z,5.94
2018-01-21T23:21:22.837Z,5.82
2018-01-21T23:23:52.969Z,5.82
2018-01-21T23:26:22.573Z,5.70
2018-01-21T23:28:51.676Z,5.70
2018-01-21T23:31:21.015Z,5.72
2018-01-21T23:33:50.554Z,5.67
2018-01-21T23:36:20.052Z,5.53
2018-01-21T23:38:49.235Z,5.49
2018-01-21T23:41:20.381Z,5.43
2018-01-21T23:43:49.737Z,5.44
2018-01-21T23:46:19.108Z,5.36
2018-01-21T23:48:48.709Z,5.42
2018-01-21T23:51:18.103Z,5.22
2018-01-21T23:53:47.471Z,5.02
2018-01-21T23:56:16.938Z,5.07
2018-01-21T23:58:46.549Z,5.08
